Tiempo atmosférico en la estación meteorológica de Barcelona Aeropuerto, Barcelona (4 m.)



Fecha
DESCASC
Temp. máxima en grados centígrados (hora)
DESCASC
Temp. mínima en grados centígrados (hora)
DESCASC
Temp. media en grados centígrados
DESCASC
Racha de viento máxima en m/sg (hora)
DESCASC
Velocidad máxima media en intervalos de 10 minutos(hora)
DESCASC
Precipitaciones diarias en mm
DESCASC
Precipitaciones de 00:00 a 06:00 en mm
DESCASC
Precipitaciones de 06:00 a 12:00 en mm
DESCASC
Precipitaciones de 12:00 a 18:00 en mm
DESCASC
Precipitaciones de 18:00 a 24:00 en mm
DESCASC
17-10-2019 24.4 (16:50) 13.1 (07:50) 18.8 8.33 (11:00) 6.11 (16:40) 0 0 0 0 0
16-10-2019 23.3 (14:30) 11.8 (06:30) 17.5 11.39 (14:20) 8.33 (16:20) 0 0 0 0 0
15-10-2019 22.6 (17:10) 15.2 (08:10) 18.9 15.28 (02:00) 8.33 (14:40) 22.2 22.2 0 0 0
14-10-2019 25.4 (13:50) 20.7 (23:40) 23.1 10.28 (11:10) 7.78 (14:20) 3.3 0 0 0.9 2.4
13-10-2019 25.4 (12:30) 21 (00:00) 23.2 10.28 (13:20) 7.5 (13:00) 0 0 0 0 0
12-10-2019 25.4 (12:10) 19.2 (00:00) 22.3 7.78 (17:50) 4.72 (23:30) 0 0 0 0 0
11-10-2019 23.9 (13:50) 18.7 (00:00) 21.3 7.22 (10:50) 4.72 (14:50) 0 0 0 0 0
10-10-2019 21.6 (15:30) 18.7 (00:00) 20.2 6.11 (17:00) 4.72 (16:40) 0 0 0 0 0
09-10-2019 25.6 (12:30) 19.1 (00:00) 22.4 12.78 (18:40) 10.28 (18:40) 0.5 0 0 0 0.5
08-10-2019 25.5 (16:00) 17.1 (00:00) 21.3 12.5 (15:40) 9.17 (16:30) 0 0 0 0 0
07-10-2019 24.7 (16:40) 17.5 (00:00) 21.1 9.72 (10:40) 7.22 (14:40) 0 0 0 0 0
06-10-2019 24.1 (18:10) 18.6 (00:00) 21.4 8.89 (13:50) 5.56 (19:10) 0 0 0 0 0
05-10-2019 24.1 (14:00) 17.3 (00:00) 20.7 8.33 (14:30) 5 (13:50) 0 0 0 0 0
04-10-2019 25.6 (14:40) 16.4 (00:00) 21 9.72 (12:40) 6.67 (12:40) 0 0 0 0 0
03-10-2019 25.1 (17:10) 16.7 (00:00) 20.9 9.72 (08:10) 6.94 (08:10) 0 0 0 0 0
02-10-2019 26.4 (13:30) 20.4 (00:00) 23.4 10.28 (00:50) 8.06 (01:00) 0 0 0 0 0
01-10-2019 26.8 (15:10) 19.2 (00:00) 23 10.83 (16:00) 8.61 (16:00) 0 0 0 0 0
30-09-2019 26.4 (12:50) 19.9 (00:00) 23.1 7.22 (16:30) 5 (16:00) 0 0 0 0 0
29-09-2019 26.6 (12:10) 19.2 (00:00) 22.9 13.33 (18:30) 10.83 (13:50) 0 0 0 0 0
28-09-2019 25.7 (11:40) 21.6 (00:00) 23.7 8.89 (12:10) 5.56 (10:10) 0 0 0 0 0
27-09-2019 26.9 (15:40) 20.1 (00:00) 23.5 9.17 (13:00) 7.22 (16:40) 0 0 0 0 0
26-09-2019 26.3 (15:30) 19.4 (00:00) 22.8 10.28 (17:40) 7.78 (17:40) -- 0 0 -- 0
25-09-2019 25.4 (12:10) 21.7 (00:00) 23.6 7.78 (00:20) 5.83 (00:10) 0 0 0 0 0
24-09-2019 27.2 (16:50) 18.1 (00:00) 22.7 13.33 (13:30) 10 (14:30) 0 0 0 0 0
23-09-2019 -- (--) -- (--) -- 10.28 (16:00) 8.06 (16:30) 0 0 0 0 0
22-09-2019 26.7 (16:10) 19.5 (00:00) 23.1 11.67 (20:40) 8.61 (20:40) 0.3 0 0 0 0.3
21-09-2019 23.8 (10:50) 20.7 (00:00) 22.3 14.44 (12:40) 10.83 (12:20) 11.3 0 0.3 11 0
20-09-2019 25.7 (12:10) 19.2 (00:00) 22.5 11.67 (09:20) 7.78 (18:10) 0 0 0 0 0

Gráficas

Temp. máximas Temp. mínimas Temp. medias Precipitaciones Rachas de viento máximas Velocidades máximas media en intervalos de 10 minutos

Datos horarios

Fecha y hora oficial Temperatura (ºC) Velocidad del viento (km/h) Dirección del viento Racha (km/h) Dirección de racha Precipitación (mm) Presión (hPa) Tendencia (hPa) Humedad (%)
2019-10-19 23:00:00 22.1 9 Sudoeste 18 Sudoeste 0 1007.5 0.5 80
2019-10-19 22:00:00 22.3 13 Sudoeste 22 Sudoeste 0 1007.2 0.2 80
2019-10-19 21:00:00 22.3 14 Sudoeste 21 Sudoeste 0 1007.2 0.3 78
2019-10-19 20:00:00 22.3 14 Sudoeste 26 Sudoeste 0 1007 0.2 76
2019-10-19 19:00:00 22.6 17 Sudoeste 26 Sudoeste 0 1007 0 73
2019-10-19 18:00:00 23 18 Sudoeste 33 Sudoeste 0 1006.9 -0.3 74
2019-10-19 17:00:00 24.1 27 Sudoeste 39 Sudoeste 0 1006.8 -1 72
2019-10-19 16:00:00 24.5 26 Sudoeste 35 Sudoeste 0 1007 -1.7 70
2019-10-19 15:00:00 24.3 25 Sudoeste 33 Sudoeste 0 1007.2 -2 73
2019-10-19 14:00:00 24.7 24 Sudoeste 33 Sudoeste 0 1007.8 -1.7 72
2019-10-19 13:00:00 24.4 22 Sudoeste 32 Sudoeste 0 1008.7 -1 76
2019-10-19 12:00:00 23 6 Sudeste 21 Sudeste 0 1009.2 -0.3 73
2019-10-19 11:00:00 20.5 6 Nordeste 21 Norte 0 1009.5 0.2 71
2019-10-19 10:00:00 19 12 Norte 21 Norte 0 1009.7 0.3 73
2019-10-19 09:00:00 16.7 14 Norte 22 Norte 0 1009.5 0.1 79
2019-10-19 08:00:00 16.8 14 Norte 22 Norte 0 1009.3 -0.5 79
2019-10-19 07:00:00 16.6 15 Norte 21 Norte 0 1009.4 -0.9 80
2019-10-19 06:00:00 17.1 15 Norte 22 Norte 0 1009.4 -1.8 78
2019-10-19 05:00:00 17.1 17 Norte 22 Norte 0 1009.8 -1.9 80
2019-10-19 04:00:00 17.3 14 Norte 18 Norte 0 1010.3 -1.6 80
2019-10-19 03:00:00 17.3 12 Norte 17 Norte 0 1011.2 -1.2 81
2019-10-19 02:00:00 17.6 6 Norte 13 Nordeste 0 1011.7 -1 80
2019-10-19 01:00:00 18.6 3 Norte 8 Nordeste 0 1011.9 -0.6 75
2019-10-19 00:00:00 19.2 2 Este 9 Norte 0 1012.4 -0.4 77
2019-10-18 23:00:00 19.3 9 Norte 11 Norte 0 1012.7 0 77
2019-10-18 22:00:00 20.1 2 Noroeste 17 Oeste 0 1012.5 0.1 66
2019-10-18 21:00:00 21.1 11 Sudoeste 17 Oeste 0 1012.8 0.3 70
2019-10-18 20:00:00 21.2 11 Oeste 18 Sudoeste 0 1012.7 -0.1 79
2019-10-18 19:00:00 21.7 13 Oeste 21 Oeste 0 1012.4 -0.6 81
2019-10-18 18:00:00 22.6 15 Sudoeste 22 Sudoeste 0 1012.5 -0.9 78
2019-10-18 17:00:00 23.5 17 Sudoeste 24 Oeste 0 1012.8 -1.4 71
2019-10-18 16:00:00 23.1 16 Sudoeste 21 Sudoeste 0 1013 -2.1 68
2019-10-18 15:00:00 23.2 11 Sudoeste 18 Sudoeste 0 1013.4 -1.8 63
2019-10-18 14:00:00 23.5 12 Sudoeste 17 Sudoeste 0 1014.2 -1 54
2019-10-18 13:00:00 22.8 4 Nordeste 18 Norte 0 1015.1 -0.3 53
2019-10-18 12:00:00 20.6 7 Norte 26 Norte 0 1015.2 0.1 54
2019-10-18 11:00:00 18.9 11 Norte 17 Norte 0 1015.2 0.6 58
2019-10-18 10:00:00 16.9 13 Norte 18 Norte 0 1015.4 0.6 64
2019-10-18 09:00:00 15.6 13 Norte 17 Norte 0 1015.1 0.4 68
2019-10-18 08:00:00 15 12 Norte 17 Norte 0 1014.6 -0.1 70
2019-10-18 07:00:00 15 13 Norte 18 Norte 0 1014.8 -0.2 70
2019-10-18 06:00:00 15.3 10 Norte 18 Norte 0 1014.7 -0.6 70
2019-10-18 05:00:00 15.9 4 Norte 13 Norte 0 1014.7 -0.8 67
2019-10-18 04:00:00 16.7 6 Norte 9 Norte 0 1015 -0.6 63
2019-10-18 03:00:00 16.9 7 Nordeste 13 Nordeste 0 1015.3 -0.5 63
2019-10-18 02:00:00 17.6 10 Nordeste 18 Nordeste 0 1015.5 -0.4 60
2019-10-18 01:00:00 17.8 5 Norte 11 Oeste 0 1015.6 0.2 63
2019-10-18 00:00:00 18.5 9 Noroeste 11 Noroeste 0 1015.8 0.7 62
2019-10-17 23:00:00 19.8 5 Oeste 11 Noroeste 0 1015.9 1.4 65
2019-10-17 22:00:00 20.1 5 Noroeste 13 Oeste 0 1015.4 1.4 75
2019-10-17 21:00:00 20.8 10 Oeste 18 Oeste 0 1015.1 1.2 76
2019-10-17 20:00:00 21.4 13 Oeste 18 Sudoeste 0 1014.5 0.3 75
2019-10-17 19:00:00 21.9 15 Sudoeste 22 Oeste 0 1014 -0.5 74
2019-10-17 18:00:00 23.2 15 Sudoeste 26 Sudoeste 0 1013.9 -0.7 63
2019-10-17 17:00:00 24.3 19 Sudoeste 28 Sudoeste 0 1014.2 -1.1 52
2019-10-17 16:00:00 24.1 16 Sudoeste 24 Sudoeste 0 1014.5 -1.5 58
2019-10-17 15:00:00 23.7 13 Sur 24 Sur 0 1014.6 -1.8 65
2019-10-17 14:00:00 23.9 13 Sudoeste 18 Sur 0 1015.3 -1 65
2019-10-17 13:00:00 24 12 Sudoeste 21 Sudoeste 0 1016 -0.2 65
2019-10-17 12:00:00 22.5 7 Norte 26 Norte 0 1016.4 0.3 55
2019-10-17 11:00:00 19 14 Norte 30 Norte 0 1016.3 0.7 53
2019-10-17 10:00:00 16.2 18 Norte 24 Norte 0 1016.2 0.8 59
2019-10-17 09:00:00 13.7 18 Norte 26 Norte 0 1016.1 0.8 67
2019-10-17 08:00:00 13.2 17 Norte 26 Norte 0 1015.6 0 69
2019-10-17 07:00:00 13.8 18 Norte 22 Norte 0 1015.4 -0.4 67
2019-10-17 06:00:00 14.4 17 Norte 24 Norte 0 1015.3 -0.8 64
2019-10-17 05:00:00 14.6 14 Norte 21 Norte 0 1015.6 -0.5 67
2019-10-17 04:00:00 14.8 14 Norte 21 Norte 0 1015.8 -0.4 68
2019-10-17 03:00:00 15.7 6 Norte 11 Norte 0 1016.1 -0.5 72
2019-10-17 02:00:00 17 5 Nordeste 13 Nordeste 0 1016.1 -0.2 70
2019-10-17 01:00:00 18 6 Nordeste 9 Nordeste 0 1016.2 0.1 68
2019-10-17 00:00:00 18.3 3 Nordeste 8 Sur 0 1016.6 1.1 69
2019-10-16 23:00:00 18.7 3 Norte -- -- 0 1016.3 1.1 67
2019-10-16 22:00:00 19.1 6 Oeste 15 Oeste 0 1016.1 1.2 64
2019-10-16 21:00:00 19.7 8 Oeste 24 Oeste 0 1015.5 0.6 66
2019-10-16 20:00:00 20.5 15 Oeste 30 Sudoeste 0 1015.2 0 61
2019-10-16 19:00:00 21 18 Oeste 28 Sudoeste 0 1014.9 -0.8 56
2019-10-16 18:00:00 21.9 21 Oeste 33 Oeste 0 1014.9 -1.3 49
2019-10-16 17:00:00 22.1 26 Sudoeste 37 Oeste 0 1015.2 -1.7 48
2019-10-16 16:00:00 23.2 24 Sudoeste 37 Oeste 0 1015.7 -2.1 43
2019-10-16 15:00:00 23 28 Oeste 41 Sudoeste 0 1016.2 -2.1 39
2019-10-16 14:00:00 22.8 29 Sudoeste 37 Sudoeste 0 1016.9 -1.8 39
2019-10-16 13:00:00 22.9 22 Oeste 30 Oeste 0 1017.8 -1.1 41
2019-10-16 12:00:00 21.4 3 Sudeste 21 Norte 0 1018.3 -0.3 41
2019-10-16 11:00:00 18.6 10 Norte 15 Norte 0 1018.7 0.5 47
2019-10-16 10:00:00 15 13 Norte 18 Norte 0 1018.9 0.8 59
2019-10-16 09:00:00 13.4 9 Norte 15 Norte 0 1018.6 0.2 63
2019-10-16 08:00:00 12.4 14 Norte 18 Norte 0 1018.2 -0.3 69
2019-10-16 07:00:00 12.5 8 Norte 13 Norte 0 1018.1 -0.4 68
2019-10-16 06:00:00 12.2 12 Norte 17 Norte 0 1018.4 -0.6 72
2019-10-16 05:00:00 12.8 8 Norte 17 Norte 0 1018.5 -0.7 69
2019-10-16 04:00:00 13 15 Norte 18 Norte 0 1018.5 -0.7 69
2019-10-16 03:00:00 14 9 Norte 22 Norte 0 1019 -0.3 65
2019-10-16 02:00:00 14.5 15 Norte 30 Nordeste 0 1019.2 0.1 63
2019-10-16 01:00:00 14.9 13 Norte 18 Norte 0 1019.2 0.8 60
2019-10-16 00:00:00 15.6 6 Norte 15 Norte 0 1019.3 1.5 57
2019-10-15 23:00:00 17 13 Norte 15 Norte 0 1019.1 1.7 51
2019-10-15 22:00:00 17.5 6 Noroeste 15 Norte 0 1018.4 2 47
2019-10-15 21:00:00 17.8 6 Noroeste 15 Noroeste 0 1017.8 2.1 46
2019-10-15 20:00:00 18.7 5 Oeste 13 Oeste 0 1017.4 1.8 45
2019-10-15 19:00:00 20.1 12 Oeste 21 Oeste 0 1016.4 1 40
2019-10-15 18:00:00 22 17 Oeste 26 Oeste 0 1015.7 0.5 33
2019-10-15 17:00:00 22.4 14 Noroeste 28 Noroeste 0 1015.6 0.2 31
2019-10-15 16:00:00 22.4 16 Noroeste 33 Norte 0 1015.4 -- 33
2019-10-15 15:00:00 21.9 21 Noroeste 39 Noroeste 0 1015.2 0.1 34
2019-10-15 14:00:00 21.2 14 Noroeste -- -- -- 1015.4 0.6 35
2019-10-15 13:00:00 -- 22 Norte 35 Norte 0 -- -- --
2019-10-15 12:00:00 20 6 Este 24 Oeste 0 1015.1 1.7 43
2019-10-15 11:00:00 18.7 14 Sudoeste 26 Noroeste 0 1014.8 2.3 48
2019-10-15 10:00:00 17.8 17 Oeste 37 Noroeste 0 1014.3 2.7 50
2019-10-15 09:00:00 16.1 21 Noroeste 37 Oeste 0 1013.4 2.7 58
2019-10-15 08:00:00 15.6 9 Noroeste 21 Noroeste 0 1012.5 2 61
2019-10-15 07:00:00 16.1 10 Oeste 32 Noroeste 0 1011.6 1.3 61
2019-10-15 06:00:00 16.4 18 Norte 26 Norte 0 1010.7 0.8 60
2019-10-15 05:00:00 16.1 11 Norte 30 Noroeste 0 1010.5 0.1 68
2019-10-15 04:00:00 16 16 Noroeste 33 Noroeste 0 1010.3 -0.2 82
2019-10-15 03:00:00 15.9 17 Norte 30 Norte 7.3 1009.9 -0.9 93
2019-10-15 02:00:00 19.8 23 Oeste 55 Oeste 14.9 1010.4 -0.4 82
2019-10-15 01:00:00 20.8 5 Norte 17 Oeste 0 1010.5 0 92
2019-10-15 00:00:00 20.7 10 Oeste 13 Sudoeste 0 1010.8 0.5 93
2019-10-14 23:00:00 21.5 5 Noroeste 18 Noroeste 0 1010.8 0.2 93
2019-10-14 22:00:00 21.7 6 Noroeste 15 Nordeste 0 1010.5 -0.8 93
2019-10-14 21:00:00 22.1 13 Este 28 Nordeste 0 1010.3 -1.6 94
2019-10-14 20:00:00 22.2 14 Este 21 Este 0 1010.6 -1.1 94
2019-10-14 19:00:00 22.4 12 Este 22 Este 2.4 1011.3 -1.8 93
2019-10-14 18:00:00 22.8 7 Este 22 Este 0.9 1011.9 -0.5 89
2019-10-14 17:00:00 23.7 17 Este 22 Este 0 1011.7 -1.2 79
2019-10-14 16:00:00 24.6 12 Sudeste 30 Este 0 1013.1 -0.9 71
2019-10-14 15:00:00 25.2 24 Este 35 Este 0 1012.4 -2.1 68
2019-10-14 14:00:00 25.1 26 Este 37 Nordeste 0 1012.9 -1.9 73
2019-10-14 13:00:00 24.2 26 Este 32 Este 0 1014 -1 75
2019-10-14 12:00:00 24.4 23 Este 37 Este 0 1014.5 0.2 74
2019-10-14 11:00:00 23.5 24 Este 32 Este 0 1014.8 0.7 80
2019-10-14 10:00:00 22.3 18 Este 30 Nordeste 0 1015 0.2 86
2019-10-14 09:00:00 21.8 20 Este 32 Nordeste 0 1014.3 -0.8 90
2019-10-14 08:00:00 21.6 19 Este 26 Este 0 1014.1 -1.2 90
2019-10-14 07:00:00 21.3 14 Nordeste 24 Nordeste 0 1014.8 -0.8 90
2019-10-14 06:00:00 21.2 17 Este 22 Nordeste 0 1015.1 -1.2 90
2019-10-14 05:00:00 21.3 17 Este 22 Este 0 1015.3 -1.2 92
2019-10-14 04:00:00 21.6 15 Este 21 Este 0 1015.6 -1.1 93
2019-10-14 03:00:00 22 14 Este 22 Este 0 1016.3 -0.7 93
2019-10-14 02:00:00 22.1 17 Este 24 Este 0 1016.5 -0.8 92
2019-10-14 01:00:00 22.2 17 Este 24 Este 0 1016.7 -0.6 91
2019-10-14 00:00:00 22.2 18 Este 26 Nordeste 0 1017 -0.1 91
2019-10-13 23:00:00 21.9 14 Este 22 Este 0 1017.3 0.5 92
2019-10-13 22:00:00 22.2 14 Este 26 Nordeste 0 1017.3 0.7 90
2019-10-13 21:00:00 22.5 17 Este 22 Este 0 1017.1 0.3 89
2019-10-13 20:00:00 22.8 18 Este 26 Este 0 1016.8 0.1 88
2019-10-13 19:00:00 23.5 18 Sudeste 24 Sudeste 0 1016.6 -0.1 84
2019-10-13 18:00:00 24.3 17 Este 24 Sudeste 0 1016.8 0 80
2019-10-13 17:00:00 24.7 19 Este 28 Sudeste 0 1016.7 -0.9 77
2019-10-13 16:00:00 24.9 21 Este 28 Este 0 1016.7 -1.3 77
2019-10-13 15:00:00 25 22 Este 32 Este 0 1016.8 -1.5 79
2019-10-13 14:00:00 24.7 23 Este 37 Este 0 1017.6 -0.4 79
2019-10-13 13:00:00 24.7 27 Este 35 Este 0 1018 0.4 78
2019-10-13 12:00:00 24.8 21 Este 30 Este 0 1018.3 1 77
2019-10-13 11:00:00 23.8 22 Este 33 Nordeste 0 1018 0.9 80
2019-10-13 10:00:00 22.8 18 Nordeste 30 Nordeste 0 1017.6 0.3 86
2019-10-13 09:00:00 21.6 11 Nordeste 26 Nordeste 0 1017.3 0.2 86
2019-10-13 08:00:00 21 10 Nordeste 28 Sudeste 0 1017.1 -0.2 85
2019-10-13 07:00:00 21.4 9 Norte 24 Norte 0 1017.3 -0.3 84
2019-10-13 06:00:00 22.1 12 Nordeste 18 Nordeste 0 1017.1 -0.8 91
2019-10-13 05:00:00 22 14 Este 21 Este 0 1017.3 -1 90
2019-10-13 04:00:00 22.2 15 Este 22 Este 0 1017.6 -0.8 86
2019-10-13 03:00:00 22.4 12 Nordeste 22 Este 0 1017.9 -0.6 84
2019-10-13 02:00:00 22.4 17 Este 22 Este 0 1018.3 -0.4 85
2019-10-13 01:00:00 22.4 17 Este 24 Este 0 1018.4 -0.1 86
2019-10-13 00:00:00 22.6 17 Este 21 Este 0 1018.5 0.1 86
2019-10-12 23:00:00 22.4 15 Este 18 Este 0 1018.7 0.3 85
2019-10-12 22:00:00 22.2 14 Este 17 Este 0 1018.5 0.4 86
2019-10-12 21:00:00 22.1 11 Este 21 Sur 0 1018.4 0.3 87
2019-10-12 20:00:00 22.6 10 Sudeste 15 Sudeste 0 1018.4 0.1 84
2019-10-12 19:00:00 22.9 10 Sudeste 15 Sudeste 0 1018.1 -0.6 82
2019-10-12 18:00:00 23.8 12 Sudeste 28 Sur 0 1018.1 -0.8 78
2019-10-12 17:00:00 23.8 14 Sudeste 22 Sudeste 0 1018.3 -1.2 78
2019-10-12 16:00:00 24.3 13 Sur 22 Sudeste 0 1018.7 -1.2 76
2019-10-12 15:00:00 24.3 15 Sudeste 24 Sur 0 1018.9 -1.4 77
2019-10-12 14:00:00 24.5 13 Sur 22 Sudoeste 0 1019.5 -1 76
2019-10-12 13:00:00 25 13 Sur 21 Sudeste 0 1019.9 -0.1 74
2019-10-12 12:00:00 24.9 7 Sudeste 13 Sudeste 0 1020.3 0.9 74
2019-10-12 11:00:00 23 6 Nordeste 11 Norte 0 1020.5 1.3 83
2019-10-12 10:00:00 21.7 7 Nordeste 21 Sudeste 0 1020 1 87
2019-10-12 09:00:00 20.1 5 Norte 15 Norte 0 1019.4 0.5 90
2019-10-12 08:00:00 19.5 10 Norte 13 Norte 0 1019.2 -0.1 91
2019-10-12 07:00:00 19.7 6 Norte 9 Norte 0 1019 -0.3 90
2019-10-12 06:00:00 19.5 8 Norte 11 Norte 0 1018.9 -0.9 91
2019-10-12 05:00:00 19.4 4 Nordeste 8 Norte 0 1019.3 -0.8 92
2019-10-12 04:00:00 19.4 -- -- -- -- 0 1019.3 -1 92
2019-10-12 03:00:00 19.4 4 Norte 8 Norte 0 1019.8 -0.5 91
2019-10-12 02:00:00 20 4 Norte 8 Norte 0 1020.1 -0.2 91
2019-10-12 01:00:00 20.5 3 Norte 5 Norte 0 1020.3 0.3 91
2019-10-12 00:00:00 21.3 2 Noroeste -- -- 0 1020.3 0.8 92
2019-10-11 23:00:00 22.1 10 Sudoeste 13 Sudoeste 0 1020.3 1 91
2019-10-11 22:00:00 22.1 8 Sudoeste 17 Sudoeste 0 1020 0.8 90
2019-10-11 21:00:00 22.3 13 Sudoeste 18 Sudoeste 0 1019.5 0.3 89
2019-10-11 20:00:00 22.2 6 Oeste 13 Oeste 0 1019.3 -0.1 89
2019-10-11 19:00:00 23 12 Oeste 18 Oeste 0 1019.2 -0.5 84
2019-10-11 18:00:00 23.2 12 Oeste 18 Sudoeste 0 1019.2 -1 82
2019-10-11 17:00:00 23.1 12 Sudoeste 22 Sudoeste 0 1019.4 -1.5 81
2019-10-11 16:00:00 23.8 15 Sudoeste 21 Sudoeste 0 1019.7 -1.8 75
2019-10-11 15:00:00 23.4 15 Sudoeste 24 Sudoeste 0 1020.2 -1.7 74
2019-10-11 14:00:00 23.7 14 Sur 21 Sur 0 1020.9 -0.9 71
2019-10-11 13:00:00 23.3 9 Sudoeste 15 Sudoeste 0 1021.5 -0.1 70
2019-10-11 12:00:00 22.3 9 Norte 17 Norte 0 1021.9 0.6 69
2019-10-11 11:00:00 21.3 14 Norte 26 Norte 0 1021.8 0.9 73
2019-10-11 10:00:00 20.3 10 Norte 17 Norte 0 1021.6 0.9 75
2019-10-11 09:00:00 19.6 13 Norte 18 Norte 0 1021.3 0.6 78
2019-10-11 08:00:00 18.9 13 Norte 18 Norte 0 1020.9 0.1 81
2019-10-11 07:00:00 19.4 9 Norte 15 Norte 0 1020.7 -0.3 81
2019-10-11 06:00:00 19.9 12 Norte 18 Norte 0 1020.7 -0.9 79
2019-10-11 05:00:00 19.9 10 Norte 15 Norte 0 1020.8 -1.1 79
2019-10-11 04:00:00 19.9 10 Norte 13 Norte 0 1021 -1.1 78
2019-10-11 03:00:00 19.9 10 Norte 13 Norte 0 1021.6 -0.7 78
2019-10-11 02:00:00 19.9 9 Norte 24 Norte 0 1021.9 -0.3 77
2019-10-11 01:00:00 20 5 Norte 9 Norte 0 1022.1 0.2 77
2019-10-11 00:00:00 20.2 7 Norte 9 Norte 0 1022.3 0.7 75
2019-10-10 23:00:00 20.3 4 Norte 8 Sudoeste 0 1022.2 0.9 76
2019-10-10 22:00:00 20.4 4 Sudoeste 9 Sudoeste 0 1021.9 0.7 76
2019-10-10 21:00:00 20.3 6 Oeste 13 Sudoeste 0 1021.6 0.7 76
2019-10-10 20:00:00 20.3 9 Oeste 15 Sudoeste 0 1021.3 0.2 73
2019-10-10 19:00:00 20.7 9 Sudoeste 21 Sudoeste 0 1021.2 -0.2 71
2019-10-10 18:00:00 20.7 15 Sudoeste 21 Sudoeste 0 1020.9 -0.8 74
2019-10-10 17:00:00 21 15 Sudoeste 22 Sudoeste 0 1021.1 -1.2 72
2019-10-10 16:00:00 21.5 12 Oeste 18 Oeste 0 1021.4 -1.4 66
2019-10-10 15:00:00 21.4 12 Oeste 17 Oeste 0 1021.7 -1.1 65
2019-10-10 14:00:00 21.1 10 Oeste 15 Oeste 0 1022.3 -0.4 67
2019-10-10 13:00:00 20.9 7 Oeste 13 Sudoeste 0 1022.8 0.6 66
2019-10-10 12:00:00 21 9 Sur 17 Sur 0 1022.8 1.5 66
2019-10-10 11:00:00 20.7 10 Sudeste 17 Este 0 1022.7 2 70
2019-10-10 10:00:00 20 5 Sur 11 Sudeste 0 1022.2 1.7 77
2019-10-10 09:00:00 18.9 9 Norte 15 Norte 0 1021.3 1.2 86
2019-10-10 08:00:00 18.7 8 Norte 18 Norte 0 1020.7 0.6 86
2019-10-10 07:00:00 19.1 8 Norte 13 Noroeste 0 1020.5 0.3 83
2019-10-10 06:00:00 19.2 6 Noroeste 8 Norte 0 1020.1 -0.5 86
2019-10-10 05:00:00 19.1 5 Noroeste 9 Noroeste 0 1020.1 -0.6 88
2019-10-10 04:00:00 19.1 6 Norte 9 Norte 0 1020.2 -0.3 88
2019-10-10 03:00:00 19.1 4 Norte 9 Norte 0 1020.6 0.3 87
2019-10-10 02:00:00 19.4 10 Norte 17 Nordeste 0 1020.7 0.5 85
2019-10-10 01:00:00 19.7 6 Norte 13 Este 0 1020.5 0.8 82
2019-10-10 00:00:00 19.9 9 Este 24 Este 0 1020.3 1 79
2019-10-09 23:00:00 19.8 18 Este 26 Nordeste 0 1020.2 1.6 80
2019-10-09 22:00:00 19.7 19 Este 26 Este 0 1019.7 1.9 83
2019-10-09 21:00:00 20 20 Este 39 Este 0.3 1019.3 2.5 83
2019-10-09 20:00:00 19.7 30 Este 42 Este 0.2 1018.6 2.1 88
2019-10-09 19:00:00 20.6 33 Este 46 Este 0 1017.8 1.2 88
2019-10-09 18:00:00 23.9 11 Sur 22 Sudoeste 0 1016.8 0.4 78
2019-10-09 17:00:00 24.2 15 Sudoeste 24 Sudoeste 0 1016.5 -0.1 79
2019-10-09 16:00:00 23.4 14 Sudoeste 26 Sudoeste 0 1016.6 -0.3 83
2019-10-09 15:00:00 23.8 17 Sudoeste 28 Sudoeste 0 1016.4 -0.5 78
2019-10-09 14:00:00 24.2 21 Sudoeste 28 Sudoeste 0 1016.6 -1.1 75
2019-10-09 13:00:00 24.9 21 Sudoeste 30 Oeste 0 1016.9 -0.1 71
2019-10-09 12:00:00 24.8 21 Sudoeste 28 Sudoeste 0 1016.9 0.3 68
2019-10-09 11:00:00 24.5 20 Oeste 26 Sudoeste 0 1017.7 1.2 67
2019-10-09 10:00:00 22.5 8 Oeste 13 Sudoeste 0 1017 0.6 76
2019-10-09 09:00:00 20.1 5 Norte 13 Norte 0 1016.6 0.3 80
2019-10-09 08:00:00 19.7 9 Norte 15 Norte 0 1016.5 0.1 83
2019-10-09 07:00:00 19.6 10 Norte 15 Norte 0 1016.4 0 83
2019-10-09 06:00:00 19.1 12 Norte 15 Norte 0 1016.3 -0.6 87
2019-10-09 05:00:00 19.3 10 Norte 15 Nordeste 0 1016.4 -0.7 89
2019-10-09 04:00:00 19.4 3 Norte 5 Norte 0 1016.4 -0.7 88
2019-10-09 03:00:00 19.8 5 Norte 11 Norte 0 1016.9 -0.2 86
2019-10-09 02:00:00 20.4 4 Norte 9 Nordeste 0 1017.1 0.2 82
2019-10-09 01:00:00 20.8 5 Norte 11 Oeste 0 1017.1 0.5 83
2019-10-09 00:00:00 21.9 9 Oeste 17 Oeste 0 1017.1 0.6 86
2019-10-08 23:00:00 22 13 Oeste 21 Oeste 0 1016.9 0.5 85
2019-10-08 22:00:00 22.2 13 Oeste 24 Oeste 0 1016.6 0.3 84
2019-10-08 21:00:00 22.5 17 Oeste 33 Oeste 0 1016.5 0.1 82
2019-10-08 20:00:00 22.9 23 Oeste 33 Oeste 0 1016.4 -0.2 79
2019-10-08 19:00:00 23.7 23 Oeste 39 Oeste 0 1016.3 -0.7 73
2019-10-08 18:00:00 24.6 26 Oeste 37 Oeste 0 1016.4 -1.1 69
2019-10-08 17:00:00 24.9 29 Oeste 42 Sudoeste 0 1016.6 -1.6 70
2019-10-08 16:00:00 25.2 33 Sudoeste 45 Sudoeste 0 1017 -2.2 67
2019-10-08 15:00:00 25.2 31 Sudoeste 42 Sudoeste 0 1017.5 -2.2 61
2019-10-08 14:00:00 25.3 28 Oeste 37 Sudoeste 0 1018.2 -1.5 57
2019-10-08 13:00:00 24.9 26 Sudoeste 37 Oeste 0 1019.2 -0.3 56
2019-10-08 12:00:00 24.5 26 Sudoeste 33 Sudoeste 0 1019.7 0.6 57
2019-10-08 11:00:00 23 15 Oeste 24 Sudoeste 0 1019.7 0.8 63
2019-10-08 10:00:00 19.6 11 Norte 18 Norte 0 1019.5 0.9 65
2019-10-08 09:00:00 17.7 14 Norte 21 Norte 0 1019.1 0.8 71
2019-10-08 08:00:00 17.2 15 Norte 18 Norte 0 1018.9 0.6 72
2019-10-08 07:00:00 17.3 14 Norte 18 Norte 0 1018.6 0.2 72
2019-10-08 06:00:00 17.7 15 Norte 21 Norte 0 1018.3 -0.4 72
2019-10-08 05:00:00 18.1 14 Norte 18 Norte 0 1018.3 -0.4 70
2019-10-08 04:00:00 17.8 14 Norte 17 Norte 0 1018.4 -0.1 71
2019-10-08 03:00:00 18.2 8 Norte 17 Norte 0 1018.7 0.1 68
2019-10-08 02:00:00 18.6 13 Norte 22 Nordeste 0 1018.7 0.6 65
2019-10-08 01:00:00 18.6 5 Norte 8 Norte 0 1018.5 1 64
2019-10-08 00:00:00 19.4 5 Norte 11 Sur 0 1018.6 1.9 66
2019-10-07 23:00:00 22.1 8 Sur 13 Sudoeste 0 1018.1 2 63
2019-10-07 22:00:00 21.4 5 Oeste 17 Oeste 0 1017.5 2 60
2019-10-07 21:00:00 22 5 Sudoeste 15 Oeste 0 1016.7 1.7 59
2019-10-07 20:00:00 21.5 9 Sudoeste 18 Oeste 0 1016.1 1.3 61
2019-10-07 19:00:00 22.4 15 Oeste 24 Sudoeste 0 1015.5 0.8 58
2019-10-07 18:00:00 23.6 17 Sudoeste 28 Oeste 0 1015 0.3 53
2019-10-07 17:00:00 24.5 22 Sudoeste 30 Sudoeste 0 1014.8 -0.5 44
2019-10-07 16:00:00 24.3 23 Sudoeste 32 Sudoeste 0 1014.7 -1.2 44
2019-10-07 15:00:00 23.7 24 Oeste 35 Sudoeste 0 1014.7 -1.5 45
2019-10-07 14:00:00 23.8 21 Sudoeste 32 Sudoeste 0 1015.3 -0.5 49
2019-10-07 13:00:00 23.4 21 Sudoeste 28 Oeste 0 1015.9 0.4 51
2019-10-07 12:00:00 22 8 Norte 24 Norte 0 1016.2 1.1 45
2019-10-07 11:00:00 20 17 Norte 35 Norte 0 1015.8 1.4 46
2019-10-07 10:00:00 19.8 18 Norte 30 Norte 0 1015.5 1.9 46
2019-10-07 09:00:00 17.7 10 Norte 22 Norte 0 1015.1 2.1 57
2019-10-07 08:00:00 18.1 16 Norte 26 Norte 0 1014.4 1.1 55
2019-10-07 07:00:00 18.2 17 Norte 24 Norte 0 1013.6 -0.3 59
2019-10-07 06:00:00 18.8 13 Norte 21 Norte 0 1013 -1.4 66
2019-10-07 05:00:00 19.6 13 Norte 21 Norte 0 1013.3 -1.3 83
2019-10-07 04:00:00 19.3 10 Norte 15 Norte 0 1013.9 -1 85
2019-10-07 03:00:00 19.5 11 Norte 15 Norte 0 1014.4 -0.9 86
2019-10-07 02:00:00 20 11 Norte 22 Nordeste 0 1014.6 -1.2 86
2019-10-07 01:00:00 20.1 12 Norte 17 Norte 0 1014.9 -1 85
2019-10-07 00:00:00 21.8 7 Este 13 Sudeste 0 1015.3 -0.7 80
2019-10-06 23:00:00 21.9 9 Este 13 Sur 0 1015.8 0.2 78
2019-10-06 22:00:00 22.2 7 Sudeste 18 Este 0 1015.9 0.4 75
2019-10-06 21:00:00 21.9 12 Este 21 Sudeste 0 1016 1.1 78
2019-10-06 20:00:00 22.1 11 Este 24 Este 0 1015.6 0.3 76
2019-10-06 19:00:00 23.1 16 Este 24 Este 0 1015.5 -0.6 71
2019-10-06 18:00:00 23.6 6 Sudeste 24 Sudeste 0 1014.9 -1.5 65
2019-10-06 17:00:00 23 15 Sudeste 26 Sudeste 0 1015.3 -2.1 72
2019-10-06 16:00:00 23.5 18 Sudeste 28 Sudeste 0 1016.1 -1.5 70
2019-10-06 15:00:00 23.3 18 Sudeste 28 Este 0 1016.4 -1.1 70
2019-10-06 14:00:00 23.2 18 Sudeste 32 Sudeste 0 1017.4 -0.3 70
2019-10-06 13:00:00 23 17 Sudeste 26 Sudeste 0 1017.6 0 71
2019-10-06 12:00:00 22.9 15 Sudeste 22 Sur 0 1017.5 0.3 74
2019-10-06 11:00:00 22.4 13 Nordeste 24 Nordeste 0 1017.7 1.4 76
2019-10-06 10:00:00 21.7 13 Nordeste 18 Nordeste 0 1017.6 1.5 78
2019-10-06 09:00:00 20.7 11 Nordeste 13 Nordeste 0 1017.2 1.1 83
2019-10-06 08:00:00 20 7 Nordeste 9 Norte 0 1016.3 0.1 84
2019-10-06 07:00:00 19.6 5 Norte 9 Norte 0 1016.1 -0.2 85
2019-10-06 06:00:00 19.3 6 Norte 11 Norte 0 1016.1 -0.4 86
2019-10-06 05:00:00 19.1 10 Norte 13 Norte 0 1016.2 -0.2 87
2019-10-06 04:00:00 18.9 9 Norte 15 Norte 0 1016.3 -0.1 87
2019-10-06 03:00:00 18.8 12 Norte 15 Norte 0 1016.5 -0.1 87
2019-10-06 02:00:00 19.1 9 Norte 17 Nordeste 0 1016.4 -0.3 86
2019-10-06 01:00:00 19.3 8 Norte 13 Norte 0 1016.4 -0.2 86
2019-10-06 00:00:00 19.9 6 Norte 8 Norte 0 1016.6 0.5 84
2019-10-05 23:00:00 21.3 2 Sur 9 Sudeste 0 1016.7 0.7 79
2019-10-05 22:00:00 21.4 5 Sudeste 13 Sudeste 0 1016.6 0.9 78
2019-10-05 21:00:00 21.4 8 Sudeste 13 Sudeste 0 1016.1 0.6 77
2019-10-05 20:00:00 21.3 10 Sudeste 17 Sudeste 0 1016 0.8 76
2019-10-05 19:00:00 21.6 11 Sudeste 18 Sudeste 0 1015.7 0.5 75
2019-10-05 18:00:00 21.8 11 Sur 18 Sudeste 0 1015.5 0.2 74
2019-10-05 17:00:00 21.9 12 Sur 24 Sudeste 0 1015.2 -0.4 74
2019-10-05 16:00:00 22.7 16 Sur 28 Sur 0 1015.2 -0.9 69
2019-10-05 15:00:00 23.5 16 Sur 30 Sur 0 1015.3 -0.9 66
2019-10-05 14:00:00 23.7 17 Sur 26 Sur 0 1015.6 -0.5 67
2019-10-05 13:00:00 23.3 16 Sudeste 24 Sudeste 0 1016.1 0.4 69
2019-10-05 12:00:00 22.6 16 Sudeste 24 Sudeste 0 1016.2 1.2 71
2019-10-05 11:00:00 20.8 8 Nordeste 21 Norte 0 1016.1 1.7 74
2019-10-05 10:00:00 19.2 9 Norte 17 Norte 0 1015.7 1.5 78
2019-10-05 09:00:00 18.4 13 Norte 22 Norte 0 1015 1 80
2019-10-05 08:00:00 17.6 15 Norte 22 Norte 0 1014.4 0.3 83
2019-10-05 07:00:00 17.7 14 Norte 18 Norte 0 1014.2 0.2 83
2019-10-05 06:00:00 18.6 12 Norte 18 Norte 0 1014 -0.6 79
2019-10-05 05:00:00 18.8 14 Norte 18 Norte 0 1014.1 -0.8 79
2019-10-05 04:00:00 19.5 10 Norte 17 Norte 0 1014 -0.8 77
2019-10-05 03:00:00 20.3 9 Norte 21 Este 0 1014.6 0 74
2019-10-05 02:00:00 20.3 12 Norte 18 Norte 0 1014.9 0.6 73
2019-10-05 01:00:00 20.5 12 Norte 17 Norte 0 1014.8 0.5 74
2019-10-05 00:00:00 20.2 12 Norte 15 Norte 0 1014.6 0.4 75
2019-10-04 23:00:00 21.2 7 Norte 9 Norte 0 1014.3 0.5 70
2019-10-04 22:00:00 21.8 3 Noroeste 9 Noroeste 0 1014.3 0.8 71
2019-10-04 21:00:00 21.9 7 Oeste 18 Oeste 0 1014.2 0.8 72
2019-10-04 20:00:00 22.7 12 Oeste 24 Oeste 0 1013.8 0.2 69
2019-10-04 19:00:00 23.9 17 Sudoeste 30 Sudoeste 0 1013.5 -0.7 61
2019-10-04 18:00:00 24.8 18 Sudoeste 28 Sudoeste 0 1013.4 -1.6 54
2019-10-04 17:00:00 24.5 24 Sudoeste 28 Sudoeste 0 1013.6 -2 67
2019-10-04 16:00:00 25.2 13 Sudoeste 21 Sur 0 1014.2 -1.9 60
2019-10-04 15:00:00 25.2 12 Sur 21 Sudeste 0 1015 -1.4 47
2019-10-04 14:00:00 25 13 Este 30 Nordeste 0 1015.6 -1 56
2019-10-04 13:00:00 23.8 22 Este 35 Nordeste 0 1016.1 -0.5 72
2019-10-04 12:00:00 23.5 13 Nordeste 24 Norte 0 1016.4 0.1 62
2019-10-04 11:00:00 21.5 14 Norte 24 Norte 0 1016.6 0.7 63
2019-10-04 10:00:00 19.3 18 Norte 26 Norte 0 1016.6 1 65
2019-10-04 09:00:00 17.5 18 Norte 28 Norte 0 1016.3 0.8 70
2019-10-04 08:00:00 16.7 19 Norte 28 Norte 0 1015.9 0.4 75
2019-10-04 07:00:00 16.9 19 Norte 26 Norte 0 1015.6 0 72
2019-10-04 06:00:00 16.6 17 Norte 26 Norte 0 1015.5 -0.5 75
2019-10-04 05:00:00 17.4 14 Norte 22 Norte 0 1015.5 -0.7 76
2019-10-04 04:00:00 17.2 14 Norte 18 Norte 0 1015.6 -0.4 79
2019-10-04 03:00:00 18.3 12 Norte 17 Norte 0 1016 -0.5 74
2019-10-04 02:00:00 18.2 12 Norte 17 Norte 0 1016.2 -0.1 75
2019-10-04 01:00:00 18.6 11 Norte 18 Norte 0 1016 0.1 75
2019-10-04 00:00:00 19.2 7 Norte 13 Norte 0 1016.5 1.1 72
2019-10-03 23:00:00 20.7 5 Norte 9 Norte 0 1016.3 1.3 69
2019-10-03 22:00:00 21.3 9 Oeste 13 Oeste 0 1015.9 1.6 70
2019-10-03 21:00:00 22 10 Oeste 17 Sudoeste 0 1015.4 1.3 63
2019-10-03 20:00:00 22.5 11 Sudoeste 18 Sudoeste 0 1015 0.7 61
2019-10-03 19:00:00 23.6 17 Sudoeste 26 Sudoeste 0 1014.3 0 55
2019-10-03 18:00:00 24.5 20 Sudoeste 28 Sudoeste 0 1014.1 -0.5 52
2019-10-03 17:00:00 24.9 18 Sudoeste 28 Sudoeste 0 1014.3 -0.9 47
2019-10-03 16:00:00 24.5 15 Sur 28 Sudoeste 0 1014.3 -1.4 50
2019-10-03 15:00:00 24.3 16 Sudoeste 26 Sudoeste 0 1014.6 -1.3 53
2019-10-03 14:00:00 23.8 13 Sur 22 Sur 0 1015.2 -0.5 53
2019-10-03 13:00:00 23.5 14 Sudoeste 22 Sudoeste 0 1015.7 0 53
2019-10-03 12:00:00 23.5 5 Este 26 Norte 0 1015.9 0.3 45
2019-10-03 11:00:00 20.6 19 Norte 28 Norte 0 1015.7 0.1 53
2019-10-03 10:00:00 18.3 22 Norte 28 Norte 0 1015.7 0.7 62
2019-10-03 09:00:00 16.9 22 Norte 35 Norte 0 1015.6 0.6 67
2019-10-03 08:00:00 16.9 24 Norte 33 Norte 0 1015.6 0.7 67
2019-10-03 07:00:00 17.4 19 Norte 28 Norte 0 1015 0.1 65
2019-10-03 06:00:00 18.1 19 Norte 26 Norte 0 1015 -0.3 63
2019-10-03 05:00:00 18.4 16 Norte 24 Norte 0 1014.9 -0.5 63
2019-10-03 04:00:00 19.5 13 Norte 22 Norte 0 1014.9 -0.4 65
2019-10-03 03:00:00 19.8 17 Norte 24 Norte 0 1015.3 -0.1 73
2019-10-03 02:00:00 19.2 12 Norte 22 Nordeste 0 1015.4 0.4 76
2019-10-03 01:00:00 19.5 10 Norte 21 Norte 0 1015.3 0.9 75
2019-10-03 00:00:00 22.4 8 Sudeste 18 Sudeste 0 1015.4 1.7 75
2019-10-02 23:00:00 22.8 14 Sudeste 22 Sudeste 0 1015 1.9 72
2019-10-02 22:00:00 22.4 12 Este 15 Este 0 1014.4 2.2 64
2019-10-02 21:00:00 22.5 10 Este 17 Este 0 1013.7 1.9 63
2019-10-02 20:00:00 23.3 10 Sudeste 18 Sudeste 0 1013.1 1.6 60
2019-10-02 19:00:00 24 14 Sur 18 Sudeste 0 1012.2 0.9 56
2019-10-02 18:00:00 24.7 13 Sudeste 22 Sudoeste 0 1011.8 0.3 53
2019-10-02 17:00:00 25.3 13 Sur 21 Sur 0 1011.5 0.1 49
2019-10-02 16:00:00 25.3 14 Sur 22 Sudoeste 0 1011.3 -0.3 49
2019-10-02 15:00:00 25.3 13 Sur 21 Sudoeste 0 1011.5 -0.3 55
2019-10-02 14:00:00 24.8 13 Sur 24 Sur 0 1011.4 -0.6 57
2019-10-02 13:00:00 25.4 9 Norte 18 Nordeste 0 1011.6 -0.3 38
2019-10-02 12:00:00 24.1 9 Norte 17 Norte 0 1011.8 0.4 47
2019-10-02 11:00:00 21.9 8 Oeste 21 Norte 0 1012 1.1 52
2019-10-02 10:00:00 20.6 15 Oeste 30 Oeste 0 1011.9 1.4 76
2019-10-02 09:00:00 22.2 11 Sudoeste 17 Sudoeste 0 1011.4 1 72
2019-10-02 08:00:00 21.5 9 Sur 15 Sudoeste 0 1010.9 0.8 73
2019-10-02 07:00:00 21.6 9 Sur 17 Sudeste 0 1010.5 0.1 73
2019-10-02 06:00:00 21.5 7 Sudeste 22 Sudeste 0 1010.4 -0.2 71
2019-10-02 05:00:00 21.7 13 Sudeste 24 Sudeste 0 1010.1 -0.2 70
2019-10-02 04:00:00 22.1 16 Sudeste 26 Este 0 1010.4 0.2 71
2019-10-02 03:00:00 22.6 16 Sudeste 33 Sudeste 0 1010.6 0.8 70
2019-10-02 02:00:00 22.8 22 Este 33 Este 0 1010.3 0.9 72
2019-10-02 01:00:00 24 29 Este 37 Este 0 1010.2 1.3 78
2019-10-02 00:00:00 23.9 19 Este 26 Este 0 1009.8 1.7 84
2019-10-01 23:00:00 23.5 10 Nordeste 28 Norte 0 1009.4 2 85
2019-10-01 22:00:00 23.1 9 Oeste 21 Oeste 0 1008.9 1.6 87
2019-10-01 21:00:00 23.6 15 Oeste 30 Oeste 0 1008.1 0.8 86
2019-10-01 20:00:00 24.1 26 Oeste 37 Sudoeste 0 1007.4 -0.3 84
2019-10-01 19:00:00 24.4 23 Oeste 35 Oeste 0 1007.3 -1 83
2019-10-01 18:00:00 25.6 27 Sudoeste 37 Sudoeste 0 1007.3 -1.5 76
2019-10-01 17:00:00 25.9 24 Sudoeste 39 Sudoeste 0 1007.7 -2 75
2019-10-01 16:00:00 26.2 31 Sudoeste 39 Sudoeste 0 1008.3 -2.2 75
2019-10-01 15:00:00 26.2 26 Sudoeste 37 Sudoeste 0 1008.8 -2.3 73
2019-10-01 14:00:00 26.3 23 Sudoeste 33 Sudoeste 0 1009.7 -1.9 70
2019-10-01 13:00:00 26 21 Sudoeste 28 Sudoeste 0 1010.5 -0.9 70
2019-10-01 12:00:00 25.4 14 Sudoeste 22 Sudoeste 0 1011.1 -0.2 75
2019-10-01 11:00:00 24.4 5 Norte 15 Norte 0 1011.6 0.2 73
2019-10-01 10:00:00 21.8 13 Norte 18 Norte 0 1011.4 0 79
2019-10-01 09:00:00 20 13 Norte 21 Norte 0 1011.3 -0.2 85
2019-10-01 08:00:00 19.3 13 Norte 17 Norte 0 1011.4 -0.4 88
2019-10-01 07:00:00 19.6 12 Norte 18 Norte 0 1011.4 -1.2 87
2019-10-01 06:00:00 19.4 12 Norte 18 Norte 0 1011.5 -1.9 88
2019-10-01 05:00:00 19.6 11 Norte 15 Norte 0 1011.8 -2 88
2019-10-01 04:00:00 19.5 7 Norte 11 Norte 0 1012.6 -1.6 88
2019-10-01 03:00:00 20.1 9 Norte 11 Norte 0 1013.4 -1.2 86
2019-10-01 02:00:00 21.6 7 Norte 15 Nordeste 0 1013.8 -0.8 81
2019-10-01 01:00:00 22.2 9 Norte 15 Norte 0 1014.2 -0.5 80
2019-10-01 00:00:00 22.3 10 Norte 13 Norte 0 1014.6 -0.3 79
2019-09-30 23:00:00 23.2 8 Noroeste 11 Norte 0 1014.6 -0.3 80
2019-09-30 22:00:00 23.3 7 Sudoeste 9 Sudoeste 0 1014.7 -0.4 81
2019-09-30 21:00:00 23.4 7 Sur 13 Sur 0 1014.9 -0.3 78
2019-09-30 20:00:00 23.5 9 Sur 15 Sudoeste 0 1014.9 -0.6 74
2019-09-30 19:00:00 24.6 12 Sur 18 Sur 0 1015.1 -1.1 70
2019-09-30 18:00:00 25.4 14 Sudoeste 22 Sudoeste 0 1015.2 -1.4 64
2019-09-30 17:00:00 25.7 16 Sudoeste 26 Sur 0 1015.5 -1.8 64
2019-09-30 16:00:00 26 18 Sudoeste 24 Sudoeste 0 1016.2 -1.6 64
2019-09-30 15:00:00 26.2 15 Sur 24 Sur 0 1016.6 -1.4 65
2019-09-30 14:00:00 26 16 Sur 24 Sudoeste 0 1017.3 -0.8 64
2019-09-30 13:00:00 26.2 17 Sur 24 Sur 0 1017.8 0.2 57
2019-09-30 12:00:00 25.9 12 Sur 22 Sur 0 1018 1 59
2019-09-30 11:00:00 25.1 6 Sudeste 15 Sudeste 0 1018.1 1.6 70
2019-09-30 10:00:00 22.4 13 Norte 18 Norte 0 1017.6 1.4 78
2019-09-30 09:00:00 20.4 13 Norte 17 Norte 0 1017 1.2 88
2019-09-30 08:00:00 20 12 Norte 17 Norte 0 1016.5 0.7 90
2019-09-30 07:00:00 20.2 13 Norte 21 Norte 0 1016.2 0.3 91
2019-09-30 06:00:00 20.3 13 Norte 18 Norte 0 1015.8 -0.2 94
2019-09-30 05:00:00 20.5 12 Norte 21 Norte 0 1015.8 -0.2 94
2019-09-30 04:00:00 20.4 12 Norte 17 Norte 0 1015.9 0.2 94
2019-09-30 03:00:00 20.3 8 Norte 15 Nordeste 0 1016 0.2 91
2019-09-30 02:00:00 20.9 6 Noroeste 11 Norte 0 1016 0.7 90
2019-09-30 01:00:00 21.7 10 Norte 11 Norte 0 1015.7 0.7 88
2019-09-30 00:00:00 22.5 3 Noroeste 21 Oeste 0 1015.8 1.5 88
2019-09-29 23:00:00 23.1 15 Oeste 30 Oeste 0 1015.3 1.4 88
2019-09-29 22:00:00 23.5 23 Oeste 30 Oeste 0 1015 1.3 88
2019-09-29 21:00:00 23.7 23 Oeste 41 Oeste 0 1014.3 0.4 87
2019-09-29 20:00:00 23.9 31 Oeste 45 Oeste 0 1013.9 -0.3 86
2019-09-29 19:00:00 24.7 38 Oeste 48 Oeste 0 1013.7 -0.9 82
2019-09-29 18:00:00 25.8 34 Oeste 46 Oeste 0 1013.9 -1.3 79
2019-09-29 17:00:00 26.1 29 Oeste 46 Sudoeste 0 1014.2 -1.5 78
2019-09-29 16:00:00 26.4 34 Oeste 45 Sudoeste 0 1014.6 -1.6 76
2019-09-29 15:00:00 26.4 31 Sudoeste 45 Sudoeste 0 1015.2 -1.2 75
2019-09-29 14:00:00 26.1 37 Sudoeste 46 Sudoeste 0 1015.7 -0.9 74
2019-09-29 13:00:00 26.2 33 Sudoeste 46 Oeste 0 1016.2 -0.5 72
2019-09-29 12:00:00 26.3 30 Sudoeste 41 Sudoeste 0 1016.4 -0.1 69
2019-09-29 11:00:00 25.7 25 Oeste 35 Oeste 0 1016.6 0.1 71
2019-09-29 10:00:00 22.9 4 Norte 11 Norte 0 1016.7 0.3 77
2019-09-29 09:00:00 19.9 10 Norte 17 Norte 0 1016.5 -0.1 83
2019-09-29 08:00:00 19.3 11 Norte 15 Norte 0 1016.5 -0.5 85
2019-09-29 07:00:00 19.3 6 Norte 11 Nordeste 0 1016.4 -0.9 86
2019-09-29 06:00:00 19.7 9 Norte 13 Nordeste 0 1016.6 -1.2 85
2019-09-29 05:00:00 20.3 11 Norte 13 Norte 0 1017 -1 84
2019-09-29 04:00:00 20.1 4 Norte 13 Norte 0 1017.3 -1.1 85
2019-09-29 03:00:00 20.3 4 Norte 9 Norte 0 1017.8 -1 84
2019-09-29 02:00:00 20.9 6 Norte 33 Norte 0 1018 -1 82
2019-09-29 01:00:00 21.4 12 Norte 15 Norte 0 1018.4 -0.5 80
2019-09-29 00:00:00 21.8 7 Norte 11 Norte 0 1018.8 -0.3 81
2019-09-28 23:00:00 22.2 4 Noroeste 9 Norte 0 1019 0.1 80
2019-09-28 22:00:00 22.6 5 Norte 13 Noroeste 0 1018.9 -0.1 77
2019-09-28 21:00:00 22.2 7 Oeste 11 Sudoeste 0 1019.1 -0.2 81
2019-09-28 20:00:00 23 9 Sudoeste 13 Sudoeste 0 1018.9 -0.6 77
2019-09-28 19:00:00 24.2 10 Sudoeste 15 Sudoeste 0 1019 -1 68
2019-09-28 18:00:00 24.5 8 Sur 18 Sudeste 0 1019.3 -1.1 64
2019-09-28 17:00:00 25 10 Sur 18 Sudeste 0 1019.5 -1.6 59
2019-09-28 16:00:00 25.1 11 Sudeste 21 Sur 0 1020 -1.4 60
2019-09-28 15:00:00 24.7 14 Sudeste 21 Este 0 1020.4 -1 59
2019-09-28 14:00:00 25.3 15 Este 22 Este 0 1021.1 -0.2 56
2019-09-28 13:00:00 25.1 16 Este 32 Este 0 1021.4 0.7 57
2019-09-28 12:00:00 25.2 20 Este 28 Este 0 1021.4 1.3 56
2019-09-28 11:00:00 25 17 Sudeste 26 Este 0 1021.3 1.7 62
2019-09-28 10:00:00 23.9 19 Este 24 Este 0 1020.7 1.7 71
2019-09-28 09:00:00 23.3 19 Este 26 Este 0 1020.1 1.2 68
2019-09-28 08:00:00 22.8 14 Nordeste 24 Nordeste 0 1019.6 0.9 71
2019-09-28 07:00:00 22.6 14 Este 18 Este 0 1019 0.4 86
2019-09-28 06:00:00 22.1 10 Nordeste 15 Norte 0 1018.9 -0.1 88
2019-09-28 05:00:00 21.8 10 Norte 15 Nordeste 0 1018.7 -0.1 89
2019-09-28 04:00:00 21.9 9 Norte 11 Norte 0 1018.6 0.2 90
2019-09-28 03:00:00 21.9 2 Norte 13 Norte 0 1019 0.7 89
2019-09-28 02:00:00 21.9 10 Norte 18 Nordeste 0 1018.8 1 90
2019-09-28 01:00:00 21.7 9 Norte 9 Norte 0 1018.4 0.8 91
2019-09-28 00:00:00 22.4 4 Norte 9 Oeste 0 1018.3 1.2 90
2019-09-27 23:00:00 23.6 8 Sudoeste 13 Sudoeste 0 1017.8 1.1 91
2019-09-27 22:00:00 23.6 8 Oeste 15 Sudoeste 0 1017.6 1.2 90
2019-09-27 21:00:00 24.1 12 Sudoeste 21 Sudoeste 0 1017.1 0.9 88
2019-09-27 20:00:00 24.4 14 Sudoeste 22 Sudoeste 0 1016.7 0.5 86
2019-09-27 19:00:00 25.1 18 Sudoeste 26 Sudoeste 0 1016.4 0 83
2019-09-27 18:00:00 26.2 21 Sudoeste 30 Sudoeste 0 1016.2 -0.7 78
2019-09-27 17:00:00 26.6 23 Sudoeste 33 Sudoeste 0 1016.2 -1.2 76
2019-09-27 16:00:00 26.7 23 Sudoeste 32 Sudoeste 0 1016.4 -1.2 76
2019-09-27 15:00:00 25.9 19 Sudoeste 26 Sudoeste 0 1016.9 -0.9 78
2019-09-27 14:00:00 26 15 Sudoeste 22 Sudoeste 0 1017.4 -0.9 74
2019-09-27 13:00:00 25.4 9 Sur 33 Sur 0 1017.6 -0.5 77
2019-09-27 12:00:00 24.9 2 Nordeste 18 Norte 0 1017.8 0.1 71
2019-09-27 11:00:00 23.5 9 Norte 17 Norte 0 1018.3 0.8 69
2019-09-27 10:00:00 23 12 Norte 21 Norte 0 1018.1 0.9 69
2019-09-27 09:00:00 20.8 14 Norte 18 Norte 0 1017.7 0.6 75
2019-09-27 08:00:00 20.1 13 Norte 18 Norte 0 1017.5 0.3 81
2019-09-27 07:00:00 20.2 13 Norte 18 Norte 0 1017.2 -0.1 82
2019-09-27 06:00:00 20.4 11 Norte 24 Norte 0 1017.1 -0.5 85
2019-09-27 05:00:00 20.3 9 Norte 13 Norte 0 1017.2 -0.7 86
2019-09-27 04:00:00 20.4 5 Norte 9 Norte 0 1017.3 -0.8 82
2019-09-27 03:00:00 20.9 6 Nordeste 8 Nordeste 0 1017.6 -0.5 79
2019-09-27 02:00:00 21.2 6 Norte 18 Norte 0 1017.9 0 77
2019-09-27 01:00:00 22.1 5 Norte 13 Oeste 0 1018.1 0.4 82
2019-09-27 00:00:00 22.7 12 Oeste 15 Oeste 0 1018.1 0.8 87
2019-09-26 23:00:00 22.7 11 Oeste 18 Oeste 0 1017.9 1 86
2019-09-26 22:00:00 23.3 13 Oeste 22 Oeste 0 1017.7 0.8 82
2019-09-26 21:00:00 23.6 15 Oeste 30 Sudoeste 0 1017.3 0.7 78
2019-09-26 20:00:00 24.1 22 Oeste 35 Oeste 0 1016.9 -0.1 74
2019-09-26 19:00:00 25 23 Oeste 33 Oeste 0 1016.9 -0.5 73
2019-09-26 18:00:00 25.5 27 Sudoeste 37 Sudoeste 0 1016.6 -0.9 68
2019-09-26 17:00:00 25.8 26 Sudoeste 35 Sudoeste 0 1017 -1.2 65
2019-09-26 16:00:00 26.2 24 Sudoeste 32 Sudoeste 0 1017.4 -1.5 55
2019-09-26 15:00:00 25.7 15 Sudoeste 22 Sudoeste -- 1017.5 -1.6 60
2019-09-26 14:00:00 25.4 12 Sur 22 Sudeste -- 1018.2 -0.8 62
2019-09-26 13:00:00 25.4 13 Sudeste 24 Sudeste 0 1018.9 0.2 68
2019-09-26 12:00:00 25.4 11 Sudeste 18 Sudeste 0 1019.1 1 68
2019-09-26 11:00:00 24.4 9 Este 15 Sudeste 0 1019 1.6 69
2019-09-26 10:00:00 22.1 14 Norte 18 Norte 0 1018.7 1.8 75
2019-09-26 09:00:00 20.2 14 Norte 21 Norte 0 1018.1 1.2 82
2019-09-26 08:00:00 19.4 14 Norte 21 Norte 0 1017.4 0.5 84
2019-09-26 07:00:00 19.7 12 Norte 17 Norte 0 1016.9 0.2 84
2019-09-26 06:00:00 20 13 Norte 17 Norte 0 1016.9 0 83
2019-09-26 05:00:00 20.2 12 Norte 17 Norte 0 1016.9 0.1 82
2019-09-26 04:00:00 19.9 12 Norte 15 Norte 0 1016.7 -0.5 83
2019-09-26 03:00:00 20.6 7 Norte 21 Sudoeste 0 1016.9 -0.3 81
2019-09-26 02:00:00 22.3 5 Noroeste 13 Sur 0 1016.8 -0.3 76
2019-09-26 01:00:00 22.5 8 Sur 13 Sur 0 1017.2 0.5 75
2019-09-26 00:00:00 22.5 8 Sur 15 Sur 0 1017.2 0.8 72
2019-09-25 23:00:00 22.5 9 Sur 15 Sur 0 1017.1 1.2 72
2019-09-25 22:00:00 22.3 7 Sur 13 Sudeste 0 1016.7 1 71
2019-09-25 21:00:00 22.3 6 Sur 15 Sudeste 0 1016.4 1.2 70
2019-09-25 20:00:00 22.5 10 Sur 18 Sur 0 1015.9 1 70
2019-09-25 19:00:00 22.8 12 Sur 21 Sudeste 0 1015.7 0.7 68
2019-09-25 18:00:00 23.7 12 Sudeste 24 Sudeste 0 1015.2 0 65
2019-09-25 17:00:00 23.8 15 Sudeste 26 Sudeste 0 1014.9 -0.6 64
2019-09-25 16:00:00 23.9 15 Sur 26 Sur 0 1015 -0.6 63
2019-09-25 15:00:00 24.4 13 Sur 24 Sudeste 0 1015.2 -0.5 59
2019-09-25 14:00:00 24.5 14 Sudeste 22 Sur 0 1015.5 -0.1 63
2019-09-25 13:00:00 25 11 Sur 21 Sur 0 1015.6 0.6 63
2019-09-25 12:00:00 25.1 10 Sudeste 21 Sudeste 0 1015.7 1.7 60
2019-09-25 11:00:00 24.2 15 Este 22 Este 0 1015.6 1.8 61
2019-09-25 10:00:00 23.5 8 Nordeste 21 Nordeste 0 1015 1.4 74
2019-09-25 09:00:00 23 10 Este 17 Sudeste 0 1014 1 77
2019-09-25 08:00:00 21.8 13 Nordeste 26 Norte 0 1013.8 0.8 83
2019-09-25 07:00:00 22.2 14 Este 24 Este 0 1013.6 0.5 81
2019-09-25 06:00:00 22.5 19 Este 26 Este 0 1013 -0.3 74
2019-09-25 05:00:00 22.2 14 Nordeste 21 Nordeste 0 1013 -0.3 82
2019-09-25 04:00:00 22.4 13 Nordeste 21 Nordeste 0 1013.1 -0.3 82
2019-09-25 03:00:00 22.4 14 Nordeste 22 Nordeste 0 1013.3 -0.2 81
2019-09-25 02:00:00 22.3 16 Nordeste 26 Este 0 1013.3 -0.3 85
2019-09-25 01:00:00 22.3 16 Nordeste 28 Este 0 1013.4 0.1 88
2019-09-25 00:00:00 22.8 23 Nordeste 30 Nordeste 0 1013.5 0.7 89
2019-09-24 23:00:00 22.9 19 Este 28 Este 0 1013.6 1.1 89
2019-09-24 22:00:00 23.9 6 Oeste 17 Oeste 0 1013.3 1 77
2019-09-24 21:00:00 23.9 14 Oeste 35 Oeste 0 1012.8 0.8 79
2019-09-24 20:00:00 24.1 28 Oeste 39 Oeste 0 1012.5 0.5 87
2019-09-24 19:00:00 25.5 26 Sudoeste 41 Sudoeste 0 1012.3 0 81
2019-09-24 18:00:00 26.1 28 Sudoeste 35 Sudoeste 0 1012 -0.7 77
2019-09-24 17:00:00 26.8 25 Sudoeste 35 Sudoeste 0 1012 -1.6 72
2019-09-24 16:00:00 26.8 30 Sudoeste 45 Sudoeste 0 1012.3 -2 71
2019-09-24 15:00:00 26.9 33 Sudoeste 46 Sudoeste 0 1012.7 -2 71
2019-09-24 14:00:00 26.6 35 Sudoeste 48 Sudoeste 0 1013.6 -1.5 70
2019-09-24 13:00:00 25.8 32 Sudoeste 45 Sudoeste 0 1014.3 -0.7 75
2019-09-24 12:00:00 25.4 31 Sudoeste 39 Sudoeste 0 1014.7 -0.1 61
2019-09-24 11:00:00 24.4 28 Sudoeste 39 Sudoeste 0 1015.1 0.1 70
2019-09-24 10:00:00 23.1 9 Oeste 22 Sudoeste 0 1015 -0.1 69
2019-09-24 09:00:00 19.9 2 Noroeste 15 Norte 0 1014.8 -0.5 77
2019-09-24 08:00:00 18.2 8 Norte 13 Norte 0 1015 -0.5 84
2019-09-24 07:00:00 18.6 4 Norte 9 Nordeste 0 1015.1 -1 85
2019-09-24 06:00:00 19.1 6 Norte 18 Nordeste 0 1015.3 -1.4 85
2019-09-24 05:00:00 19.6 10 Nordeste 13 Norte 0 1015.5 -1.5 85
2019-09-24 04:00:00 20.8 7 Norte 15 Noroeste 0 1016.1 -1.2 84
2019-09-24 03:00:00 20.6 2 Norte 9 Oeste 0 1016.7 -0.9 81
2019-09-24 02:00:00 21.3 4 Oeste 15 Oeste 0 1017 -0.9 82
2019-09-24 01:00:00 21.3 0 Calma 15 Oeste 0 1017.3 -0.5 82
2019-09-24 00:00:00 21.3 13 Oeste 22 Oeste 0 1017.6 -0.1 82
2019-09-23 23:00:00 21.7 14 Oeste 18 Oeste 0 1017.9 0.6 79
2019-09-23 22:00:00 22.2 14 Oeste 26 Oeste 0 1017.8 0.5 76
2019-09-23 21:00:00 22.7 18 Oeste 30 Oeste 0 1017.7 0.6 72
2019-09-23 20:00:00 22.8 21 Oeste 33 Oeste 0 1017.3 0.1 67
2019-09-23 19:00:00 23.4 24 Oeste 32 Oeste 0 1017.3 -0.3 63
2019-09-23 18:00:00 23.9 23 Sudoeste 33 Sudoeste 0 1017.1 -0.9 63
2019-09-23 17:00:00 24.2 27 Sudoeste 37 Sudoeste 0 1017.2 -0.8 62
2019-09-23 16:00:00 25 27 Sudoeste 37 Sudoeste 0 1017.6 -- 60
2019-09-23 15:00:00 24.6 25 Sudoeste 33 Sudoeste 0 1018 -1.1 58
2019-09-23 14:00:00 24.6 24 Sudoeste 32 Sudoeste 0 1018 -1.3 61
2019-09-23 13:00:00 -- 19 Sudoeste 24 Sudoeste 0 -- -- --
2019-09-23 12:00:00 24 11 Sudoeste 18 Sur 0 1019.1 0.4 59
2019-09-23 11:00:00 22.9 5 Oeste 9 Oeste 0 1019.3 1.3 64
2019-09-23 10:00:00 21.2 5 Norte 11 Norte 0 1019 1.7 75
2019-09-23 09:00:00 19.2 10 Norte 13 Norte 0 1018.7 1.9 83
2019-09-23 08:00:00 19 8 Norte 13 Norte 0 1018 1.5 85
2019-09-23 07:00:00 20 6 Norte 11 Nordeste 0 1017.3 1 78
2019-09-23 06:00:00 20.1 8 Nordeste 11 Este 0 1016.8 0.8 79
2019-09-23 05:00:00 20.8 8 Nordeste 11 Este 0 1016.5 0.8 77
2019-09-23 04:00:00 21.1 8 Este 18 Este 0 1016.3 0.9 79
2019-09-23 03:00:00 21.4 12 Este 18 Este 0 1016 1.4 83
2019-09-23 02:00:00 21.3 16 Este 28 Este 0 1015.7 2.1 87
2019-09-23 01:00:00 21.7 24 Este 35 Este 0 1015.4 2.7 86
2019-09-23 00:00:00 21.9 26 Este 37 Nordeste 0 1014.6 2.5 88
2019-09-22 23:00:00 23.8 10 Sudoeste 15 Sudoeste 0.1 1013.6 2.2 76
2019-09-22 22:00:00 23.1 10 Oeste 21 Sudoeste 0 1012.7 2.1 82
2019-09-22 21:00:00 23.4 17 Oeste 42 Oeste 0.2 1012.1 1.9 83
2019-09-22 20:00:00 24.5 23 Oeste 33 Sudoeste 0 1011.4 1.2 85
2019-09-22 19:00:00 25.1 23 Sudoeste 35 Sudoeste 0 1010.6 0.4 83
2019-09-22 18:00:00 26 25 Sudoeste 35 Sudoeste 0 1010.2 -0.2 76
2019-09-22 17:00:00 26.3 25 Sudoeste 33 Sudoeste 0 1010.2 -0.6 78
2019-09-22 16:00:00 26.3 25 Sudoeste 35 Sudoeste 0 1010.2 -1.3 77
2019-09-22 15:00:00 25.8 30 Sudoeste 37 Sudoeste 0 1010.4 -1.5 79
2019-09-22 14:00:00 26 24 Sudoeste 32 Sudoeste 0 1010.8 -1.2 76
2019-09-22 13:00:00 25.8 25 Sudoeste 32 Sudoeste 0 1011.5 -0.5 74
2019-09-22 12:00:00 25.2 22 Sudoeste 28 Oeste 0 1011.9 0.4 75
2019-09-22 11:00:00 23.8 18 Sudoeste 26 Sudoeste 0 1012 1.1 78
2019-09-22 10:00:00 22.8 9 Sudoeste 13 Sudoeste 0 1012 1.3 81
2019-09-22 09:00:00 21.1 3 Norte 17 Norte 0 1011.5 0.9 83
2019-09-22 08:00:00 19.6 10 Norte 18 Norte 0 1010.9 -0.2 87
2019-09-22 07:00:00 19.7 12 Norte 17 Norte 0 1010.7 -0.8 87
2019-09-22 06:00:00 19.7 9 Norte 13 Norte 0 1010.6 -1.4 86
2019-09-22 05:00:00 20 -- -- -- -- 0 1011.1 -1.2 86
2019-09-22 04:00:00 20.7 12 Norte 21 Norte 0 1011.5 -1.2 82
2019-09-22 03:00:00 20.4 14 Norte 24 Nordeste 0 1012 -0.8 84
2019-09-22 02:00:00 19.9 12 Norte 17 Norte 0 1012.3 -0.6 87
2019-09-22 01:00:00 20.6 9 Norte 11 Norte 0 1012.7 -0.5 84
2019-09-22 00:00:00 21.3 8 Nordeste 26 Nordeste 0 1012.8 0.6 82
2019-09-21 23:00:00 21.6 13 Nordeste 30 Norte 0 1012.9 1.1 82
2019-09-21 22:00:00 21.7 23 Este 46 Nordeste 0 1013.2 1.1 81
2019-09-21 21:00:00 21.4 24 Este 35 Este 0 1012.2 0.1 82
2019-09-21 20:00:00 21.6 24 Este 33 Este 0 1011.8 -0.4 85
2019-09-21 19:00:00 22.2 22 Este 39 Este 0 1012.1 0.1 86
2019-09-21 18:00:00 22.5 24 Este 39 Nordeste 0 1012.1 -0.7 85
2019-09-21 17:00:00 23.1 25 Este 35 Nordeste 0 1012.2 -0.4 84
2019-09-21 16:00:00 22.4 21 Nordeste 32 Nordeste 0 1012 -0.6 88
2019-09-21 15:00:00 21.1 19 Este 37 Nordeste 2.1 1012.8 -1 93
2019-09-21 14:00:00 21.5 22 Sudeste 42 Nordeste 8.5 1012.6 -1.1 90
2019-09-21 13:00:00 22.1 31 Este 52 Este 0.4 1012.6 -1.1 87
2019-09-21 12:00:00 22.6 26 Este 35 Este 0.1 1013.8 0.1 92
2019-09-21 11:00:00 23.7 16 Nordeste 32 Norte 0 1013.7 0.2 83
2019-09-21 10:00:00 22.9 19 Norte 41 Norte 0 1013.7 -0.3 79
2019-09-21 09:00:00 22.4 15 Norte 39 Norte 0.2 1013.7 -0.8 82
2019-09-21 08:00:00 22.4 9 Norte 15 Norte 0 1013.5 -1.4 77
2019-09-21 07:00:00 22.3 13 Norte 17 Norte 0 1014 -1.6 77
2019-09-21 06:00:00 22.2 14 Norte 22 Nordeste 0 1014.5 -1.5 77
2019-09-21 05:00:00 22.9 18 Nordeste 30 Este 0 1014.9 -1.2 79
2019-09-21 04:00:00 22.8 21 Este 32 Este 0 1015.6 -1 81
2019-09-21 03:00:00 22.8 19 Este 30 Este 0 1016 -1 80
2019-09-21 02:00:00 22.6 23 Este 32 Este 0 1016.1 -1.1 83
2019-09-21 01:00:00 22.7 20 Este 28 Este 0 1016.6 -1 84
2019-09-21 00:00:00 22.8 23 Este 30 Este 0 1017 -0.7 85
2019-09-20 23:00:00 23 20 Este 28 Este 0 1017.2 -0.2 83
2019-09-20 22:00:00 23.1 22 Este 28 Este 0 1017.6 0.3 82
2019-09-20 21:00:00 23.4 18 Este 26 Este 0 1017.7 0.8 82
2019-09-20 20:00:00 23.6 19 Este 32 Este 0 1017.4 0.1 82
2019-09-20 19:00:00 24.2 24 Este 35 Este 0 1017.3 -0.2 79
2019-09-20 18:00:00 24.6 27 Este 37 Este 0 1016.9 -1.2 75
2019-09-20 17:00:00 25 23 Este 32 Este 0 1017.3 -1.4 71
2019-09-20 16:00:00 25.3 23 Este 32 Sudeste 0 1017.5 -1.7 66
2019-09-20 15:00:00 25.2 23 Este 33 Este 0 1018.1 -1.7 66
2019-09-20 14:00:00 25.3 20 Este 28 Este 0 1018.7 -1.1 63
2019-09-20 13:00:00 25.4 16 Sudeste 26 Sudeste 0 1019.2 -0.3 58
2019-09-20 12:00:00 25.2 15 Este 32 Este 0 1019.8 0.9 54
2019-09-20 11:00:00 24.1 17 Este 30 Nordeste 0 1019.8 1.4 64
2019-09-20 10:00:00 22.8 12 Norte 42 Nordeste 0 1019.5 1.6 68
2019-09-20 09:00:00 20.7 13 Norte 32 Norte 0 1018.9 1.1 75
2019-09-20 08:00:00 19.5 12 Nordeste 37 Norte 0 1018.4 0.3 80
2019-09-20 07:00:00 19.2 13 Norte 22 Norte 0 1017.9 -0.1 81
2019-09-20 06:00:00 19.4 17 Norte 22 Norte 0 1017.8 -0.3 80
2019-09-20 05:00:00 20 15 Norte 21 Norte 0 1018.1 -0.2 77
2019-09-20 04:00:00 19.8 14 Norte 18 Norte 0 1018 -0.3 80
2019-09-20 03:00:00 20 14 Norte 22 Norte 0 1018.1 -0.4 82
2019-09-20 02:00:00 20.4 13 Norte 22 Nordeste 0 1018.3 -0.3 82
2019-09-20 01:00:00 20.9 9 Norte 13 Norte 0 1018.3 -0.1 81
2019-09-20 00:00:00 22.2 5 Este 11 Noroeste 0 1018.5 0.9 84